createdAt,value
2016-04-28T00:00:40.403Z,1003.78
2016-04-28T00:01:40.436Z,1003.78
2016-04-28T00:02:40.454Z,1003.79
2016-04-28T00:03:40.489Z,1003.83
2016-04-28T00:04:40.508Z,1003.81
2016-04-28T00:05:40.541Z,1003.82
2016-04-28T00:06:40.559Z,1003.8
2016-04-28T00:07:40.594Z,1003.83
2016-04-28T00:08:40.612Z,1003.83
2016-04-28T00:09:40.645Z,1003.87
2016-04-28T00:10:40.679Z,1003.88
2016-04-28T00:11:40.713Z,1003.83
2016-04-28T00:12:40.732Z,1003.85
2016-04-28T00:13:40.751Z,1003.87
2016-04-28T00:14:40.784Z,1003.88
2016-04-28T00:15:40.801Z,1003.87
2016-04-28T00:16:40.837Z,1003.92
2016-04-28T00:17:40.870Z,1003.92
2016-04-28T00:18:40.889Z,1003.92
2016-04-28T00:19:40.922Z,1003.9
2016-04-28T00:20:40.940Z,1003.93
2016-04-28T00:21:40.975Z,1003.88
2016-04-28T00:22:41.009Z,1003.91
2016-04-28T00:23:41.027Z,1003.94
2016-04-28T00:24:41.061Z,1003.95
2016-04-28T00:25:41.079Z,1003.95
2016-04-28T00:26:41.114Z,1003.97
2016-04-28T00:27:41.131Z,1003.97
2016-04-28T00:28:41.165Z,1003.94
2016-04-28T00:29:41.184Z,1003.94
2016-04-28T00:30:41.217Z,1003.96
2016-04-28T00:31:41.252Z,1003.94
2016-04-28T00:32:41.269Z,1003.95
2016-04-28T00:33:41.304Z,1003.95
2016-04-28T00:34:41.338Z,1003.92
2016-04-28T00:35:41.355Z,1003.93
2016-04-28T00:36:41.374Z,1003.97
2016-04-28T00:37:41.408Z,1003.94
2016-04-28T00:38:41.443Z,1003.95
2016-04-28T00:39:41.460Z,1003.98
2016-04-28T00:40:42.088Z,1003.96
2016-04-28T00:41:41.512Z,1003.97
2016-04-28T00:42:41.547Z,1004.03
2016-04-28T00:43:41.565Z,1004.04
2016-04-28T00:44:41.599Z,1004.02
2016-04-28T00:45:41.632Z,1004.05
2016-04-28T00:46:41.651Z,1004.07
2016-04-28T00:47:41.685Z,1004.07
2016-04-28T00:48:41.703Z,1004.09
2016-04-28T00:49:41.737Z,1004.09
2016-04-28T00:50:41.756Z,1004.1
2016-04-28T00:51:41.790Z,1004.08
2016-04-28T00:52:41.808Z,1004.06
2016-04-28T00:53:41.842Z,1004.09
2016-04-28T00:54:41.861Z,1004.11
2016-04-28T00:55:41.894Z,1004.09
2016-04-28T00:56:41.928Z,1004.12
2016-04-28T00:57:41.947Z,1004.11
2016-04-28T00:58:41.980Z,1004.13
2016-04-28T00:59:41.999Z,1004.13
2016-04-28T01:00:42.033Z,1004.18
2016-04-28T01:01:42.050Z,1004.15
2016-04-28T01:02:42.085Z,1004.17
2016-04-28T01:03:42.103Z,1004.14
2016-04-28T01:04:42.138Z,1004.14
2016-04-28T01:05:42.171Z,1004.2
2016-04-28T01:06:42.189Z,1004.13
2016-04-28T01:07:42.223Z,1004.15
2016-04-28T01:08:42.241Z,1004.17
2016-04-28T01:09:42.276Z,1004.2
2016-04-28T01:10:42.512Z,1004.2
2016-04-28T01:11:42.327Z,1004.19
2016-04-28T01:12:42.362Z,1004.22
2016-04-28T01:13:42.380Z,1004.19
2016-04-28T01:14:42.414Z,1004.21
2016-04-28T01:15:42.432Z,1004.2
2016-04-28T01:16:42.466Z,1004.18
2016-04-28T01:17:42.485Z,1004.21
2016-04-28T01:18:42.518Z,1004.19
2016-04-28T01:19:42.537Z,1004.24
2016-04-28T01:20:42.570Z,1004.21
2016-04-28T01:21:42.589Z,1004.2
2016-04-28T01:22:42.623Z,1004.27
2016-04-28T01:23:42.656Z,1004.24
2016-04-28T01:24:42.675Z,1004.26
2016-04-28T01:25:42.709Z,1004.28
2016-04-28T01:26:42.743Z,1004.23
2016-04-28T01:27:42.761Z,1004.24
2016-04-28T01:28:42.780Z,1004.24
2016-04-28T01:29:42.814Z,1004.27
2016-04-28T01:30:42.848Z,1004.29
2016-04-28T01:31:42.866Z,1004.28
2016-04-28T01:32:42.883Z,1004.31
2016-04-28T01:33:42.918Z,1004.29
2016-04-28T01:34:42.936Z,1004.33
2016-04-28T01:35:42.971Z,1004.34
2016-04-28T01:36:43.004Z,1004.33
2016-04-28T01:37:43.039Z,1004.32
2016-04-28T01:38:43.057Z,1004.33
2016-04-28T01:39:43.075Z,1004.34
2016-04-28T01:40:43.374Z,1004.35
2016-04-28T01:41:43.612Z,1004.35
2016-04-28T01:42:43.161Z,1004.38
2016-04-28T01:43:43.196Z,1004.39
2016-04-28T01:44:43.213Z,1004.4
2016-04-28T01:45:43.247Z,1004.38
2016-04-28T01:46:43.266Z,1004.4
2016-04-28T01:47:43.299Z,1004.4
2016-04-28T01:48:43.318Z,1004.42
2016-04-28T01:49:43.351Z,1004.41
2016-04-28T01:50:43.387Z,1004.42
2016-04-28T01:51:43.404Z,1004.43
2016-04-28T01:52:43.437Z,1004.41
2016-04-28T01:53:43.457Z,1004.46
2016-04-28T01:54:43.490Z,1004.46
2016-04-28T01:55:43.525Z,1004.49
2016-04-28T01:56:44.073Z,1004.48
2016-04-28T01:57:43.561Z,1004.46
2016-04-28T01:58:43.594Z,1004.49
2016-04-28T01:59:43.629Z,1004.45
2016-04-28T02:00:43.647Z,1004.47
2016-04-28T02:01:43.680Z,1004.47
2016-04-28T02:02:43.700Z,1004.5
2016-04-28T02:03:43.733Z,1004.48
2016-04-28T02:04:43.752Z,1004.43
2016-04-28T02:05:43.785Z,1004.49
2016-04-28T02:06:43.819Z,1004.5
2016-04-28T02:07:43.853Z,1004.47
2016-04-28T02:08:43.872Z,1004.48
2016-04-28T02:09:43.890Z,1004.46
2016-04-28T02:10:43.924Z,1004.47
2016-04-28T02:11:44.005Z,1004.42
2016-04-28T02:12:43.976Z,1004.45
2016-04-28T02:13:44.010Z,1004.45
2016-04-28T02:14:44.028Z,1004.45
2016-04-28T02:15:44.063Z,1004.45
2016-04-28T02:16:44.081Z,1004.46
2016-04-28T02:17:44.115Z,1004.45
2016-04-28T02:18:44.133Z,1004.47
2016-04-28T02:19:44.167Z,1004.52
2016-04-28T02:20:44.201Z,1004.51
2016-04-28T02:21:44.219Z,1004.49
2016-04-28T02:22:44.259Z,1004.56
2016-04-28T02:23:44.277Z,1004.56
2016-04-28T02:24:44.312Z,1004.58
2016-04-28T02:25:44.329Z,1004.56
2016-04-28T02:26:44.363Z,1004.55
2016-04-28T02:27:44.381Z,1004.55
2016-04-28T02:28:44.416Z,1004.57
2016-04-28T02:29:44.450Z,1004.6
2016-04-28T02:30:44.468Z,1004.59
2016-04-28T02:31:44.501Z,1004.54
2016-04-28T02:32:44.520Z,1004.57
2016-04-28T02:33:44.554Z,1004.58
2016-04-28T02:34:44.588Z,1004.56
2016-04-28T02:35:44.607Z,1004.57
2016-04-28T02:36:44.640Z,1004.55
2016-04-28T02:37:44.659Z,1004.59
2016-04-28T02:38:44.692Z,1004.6
2016-04-28T02:39:44.710Z,1004.58
2016-04-28T02:40:44.870Z,1004.59
2016-04-28T02:41:45.139Z,1004.61
2016-04-28T02:42:44.797Z,1004.57
2016-04-28T02:43:44.815Z,1004.61
2016-04-28T02:44:44.850Z,1004.58
2016-04-28T02:45:44.883Z,1004.58
2016-04-28T02:46:44.902Z,1004.61
2016-04-28T02:47:44.935Z,1004.59
2016-04-28T02:48:44.955Z,1004.58
2016-04-28T02:49:44.988Z,1004.61
2016-04-28T02:50:45.006Z,1004.58
2016-04-28T02:51:45.040Z,1004.59
2016-04-28T02:52:45.073Z,1004.61
2016-04-28T02:53:45.093Z,1004.64
2016-04-28T02:54:45.126Z,1004.63
2016-04-28T02:55:45.160Z,1004.66
2016-04-28T02:56:45.288Z,1004.64
2016-04-28T02:57:45.196Z,1004.63
2016-04-28T02:58:45.231Z,1004.65
2016-04-28T02:59:45.248Z,1004.63
2016-04-28T03:00:45.284Z,1004.69
2016-04-28T03:01:45.317Z,1004.66
2016-04-28T03:02:45.335Z,1004.73
2016-04-28T03:03:45.353Z,1004.68
2016-04-28T03:04:45.387Z,1004.62
2016-04-28T03:05:45.422Z,1004.64
2016-04-28T03:06:45.439Z,1004.65
2016-04-28T03:07:45.473Z,1004.65
2016-04-28T03:08:45.492Z,1004.66
2016-04-28T03:09:45.526Z,1004.67
2016-04-28T03:10:45.560Z,1004.69
2016-04-28T03:11:45.578Z,1004.73
2016-04-28T03:12:45.597Z,1004.7
2016-04-28T03:13:45.630Z,1004.69
2016-04-28T03:14:45.649Z,1004.68
2016-04-28T03:15:45.683Z,1004.74
2016-04-28T03:16:45.701Z,1004.73
2016-04-28T03:17:45.735Z,1004.75
2016-04-28T03:18:45.769Z,1004.76
2016-04-28T03:19:45.787Z,1004.75
2016-04-28T03:20:45.821Z,1004.77
2016-04-28T03:21:45.855Z,1004.76
2016-04-28T03:22:45.874Z,1004.76
2016-04-28T03:23:45.891Z,1004.78
2016-04-28T03:24:45.926Z,1004.78
2016-04-28T03:25:45.944Z,1004.78
2016-04-28T03:26:45.978Z,1004.8
2016-04-28T03:27:45.996Z,1004.79
2016-04-28T03:28:46.029Z,1004.77
2016-04-28T03:29:46.065Z,1004.77
2016-04-28T03:30:46.082Z,1004.77
2016-04-28T03:31:46.117Z,1004.81
2016-04-28T03:32:46.134Z,1004.83
2016-04-28T03:33:46.168Z,1004.85
2016-04-28T03:34:46.187Z,1004.85
2016-04-28T03:35:46.220Z,1004.82
2016-04-28T03:36:46.255Z,1004.9
2016-04-28T03:37:46.273Z,1004.85
2016-04-28T03:38:46.307Z,1004.88
2016-04-28T03:39:46.325Z,1004.9
2016-04-28T03:40:46.343Z,1004.93
2016-04-28T03:41:46.378Z,1004.92
2016-04-28T03:42:46.411Z,1004.88
2016-04-28T03:43:46.430Z,1004.91
2016-04-28T03:44:46.463Z,1004.89
2016-04-28T03:45:46.483Z,1004.91
2016-04-28T03:46:46.516Z,1004.93
2016-04-28T03:47:46.534Z,1004.95
2016-04-28T03:48:46.569Z,1004.93
2016-04-28T03:49:46.586Z,1004.94
2016-04-28T03:50:46.621Z,1004.97
2016-04-28T03:51:46.638Z,1004.98
2016-04-28T03:52:46.673Z,1004.96
2016-04-28T03:53:46.691Z,1004.96
2016-04-28T03:54:46.724Z,1004.98
2016-04-28T03:55:46.743Z,1004.98
2016-04-28T03:56:47.309Z,1004.98
2016-04-28T03:57:46.812Z,1004.99
2016-04-28T03:58:46.829Z,1004.98
2016-04-28T03:59:46.863Z,1005
2016-04-28T04:00:46.882Z,1005.01
2016-04-28T04:01:46.901Z,1005
2016-04-28T04:02:46.934Z,1005.02
2016-04-28T04:03:46.968Z,1005.01
2016-04-28T04:04:46.987Z,1005
2016-04-28T04:05:47.020Z,1005.03
2016-04-28T04:06:47.039Z,1005.02
2016-04-28T04:07:47.072Z,1005.04
2016-04-28T04:08:47.091Z,1005.02
2016-04-28T04:09:47.125Z,1005.01
2016-04-28T04:10:47.159Z,1005.03
2016-04-28T04:11:49.349Z,1005.05
2016-04-28T04:12:47.211Z,1005.02
2016-04-28T04:13:47.230Z,1005.07
2016-04-28T04:14:47.247Z,1005.06
2016-04-28T04:15:47.281Z,1005.03
2016-04-28T04:16:47.316Z,1005.05
2016-04-28T04:17:47.334Z,1005.07
2016-04-28T04:18:47.352Z,1005.07
2016-04-28T04:19:47.385Z,1005.15
2016-04-28T04:20:47.420Z,1005.13
2016-04-28T04:21:47.438Z,1005.12
2016-04-28T04:22:47.472Z,1005.12
2016-04-28T04:23:47.490Z,1005.18
2016-04-28T04:24:47.525Z,1005.16
2016-04-28T04:25:47.543Z,1005.17
2016-04-28T04:26:47.577Z,1005.19
2016-04-28T04:27:47.610Z,1005.16
2016-04-28T04:28:47.629Z,1005.23
2016-04-28T04:29:47.648Z,1005.22
2016-04-28T04:30:47.681Z,1005.24
2016-04-28T04:31:47.699Z,1005.24
2016-04-28T04:32:47.734Z,1005.23
2016-04-28T04:33:47.767Z,1005.28
2016-04-28T04:34:47.801Z,1005.31
2016-04-28T04:35:47.819Z,1005.3
2016-04-28T04:36:47.838Z,1005.32
2016-04-28T04:37:47.872Z,1005.31
2016-04-28T04:38:47.890Z,1005.31
2016-04-28T04:39:47.925Z,1005.33
2016-04-28T04:40:47.942Z,1005.33
2016-04-28T04:41:48.039Z,1005.34
2016-04-28T04:42:47.994Z,1005.32
2016-04-28T04:43:48.028Z,1005.34
2016-04-28T04:44:48.047Z,1005.4
2016-04-28T04:45:48.081Z,1005.37
2016-04-28T04:46:48.114Z,1005.37
2016-04-28T04:47:48.133Z,1005.4
2016-04-28T04:48:48.167Z,1005.37
2016-04-28T04:49:48.185Z,1005.37
2016-04-28T04:50:48.219Z,1005.35
2016-04-28T04:51:48.253Z,1005.4
2016-04-28T04:52:48.272Z,1005.44
2016-04-28T04:53:48.290Z,1005.45
2016-04-28T04:54:48.324Z,1005.46
2016-04-28T04:55:48.343Z,1005.44
2016-04-28T04:56:48.376Z,1005.49
2016-04-28T04:57:48.394Z,1005.48
2016-04-28T04:58:48.428Z,1005.49
2016-04-28T04:59:48.447Z,1005.49
2016-04-28T05:00:48.481Z,1005.52
2016-04-28T05:01:48.515Z,1005.53
2016-04-28T05:02:48.532Z,1005.58
2016-04-28T05:03:48.567Z,1005.59
2016-04-28T05:04:48.585Z,1005.6
2016-04-28T05:05:48.619Z,1005.66
2016-04-28T05:06:48.637Z,1005.66
2016-04-28T05:07:48.671Z,1005.65
2016-04-28T05:08:48.690Z,1005.69
2016-04-28T05:09:48.723Z,1005.67
2016-04-28T05:10:48.757Z,1005.71
2016-04-28T05:11:48.775Z,1005.69
2016-04-28T05:12:48.795Z,1005.72
2016-04-28T05:13:48.828Z,1005.71
2016-04-28T05:14:48.861Z,1005.74
2016-04-28T05:15:48.881Z,1005.77
2016-04-28T05:16:48.914Z,1005.75
2016-04-28T05:17:48.933Z,1005.74
2016-04-28T05:18:48.966Z,1005.8
2016-04-28T05:19:48.986Z,1005.78
2016-04-28T05:20:49.018Z,1005.8
2016-04-28T05:21:49.038Z,1005.84
2016-04-28T05:22:49.071Z,1005.82
2016-04-28T05:23:49.104Z,1005.87
2016-04-28T05:24:49.123Z,1005.81
2016-04-28T05:25:49.158Z,1005.82
2016-04-28T05:26:49.472Z,1005.86
2016-04-28T05:27:49.209Z,1005.85
2016-04-28T05:28:49.244Z,1005.86
2016-04-28T05:29:49.262Z,1005.84
2016-04-28T05:30:49.296Z,1005.85
2016-04-28T05:31:49.314Z,1005.9
2016-04-28T05:32:49.349Z,1005.87
2016-04-28T05:33:49.365Z,1005.92
2016-04-28T05:34:49.401Z,1005.92
2016-04-28T05:35:49.434Z,1005.93
2016-04-28T05:36:49.452Z,1005.96
2016-04-28T05:37:49.486Z,1005.94
2016-04-28T05:38:49.505Z,1005.96
2016-04-28T05:39:49.539Z,1005.95
2016-04-28T05:40:49.556Z,1005.98
2016-04-28T05:41:49.591Z,1006.02
2016-04-28T05:42:49.625Z,1006.04
2016-04-28T05:43:49.643Z,1006.01
2016-04-28T05:44:49.678Z,1006.07
2016-04-28T05:45:49.695Z,1006.09
2016-04-28T05:46:49.729Z,1006.08
2016-04-28T05:47:49.764Z,1006.08
2016-04-28T05:48:49.781Z,1006.08
2016-04-28T05:49:49.816Z,1006.13
2016-04-28T05:50:49.833Z,1006.17
2016-04-28T05:51:49.869Z,1006.13
2016-04-28T05:52:49.886Z,1006.19
2016-04-28T05:53:49.920Z,1006.17
2016-04-28T05:54:49.954Z,1006.13
2016-04-28T05:55:49.972Z,1006.19
2016-04-28T05:56:50.007Z,1006.2
2016-04-28T05:57:50.024Z,1006.19
2016-04-28T05:58:50.058Z,1006.18
2016-04-28T05:59:50.093Z,1006.19
2016-04-28T06:00:50.116Z,1006.25
2016-04-28T06:01:50.207Z,1006.31
2016-04-28T06:02:50.266Z,1006.3
2016-04-28T06:03:50.324Z,1006.31
2016-04-28T06:04:50.400Z,1006.32
2016-04-28T06:05:50.454Z,1006.3
2016-04-28T06:06:50.503Z,1006.28
2016-04-28T06:07:50.536Z,1006.25
2016-04-28T06:08:50.585Z,1006.27
2016-04-28T06:09:50.633Z,1006.26
2016-04-28T06:10:50.665Z,1006.27
2016-04-28T06:11:51.579Z,1006.24
2016-04-28T06:12:50.743Z,1006.27
2016-04-28T06:13:50.765Z,1006.24
2016-04-28T06:14:50.806Z,1006.25
2016-04-28T06:15:50.843Z,1006.26
2016-04-28T06:16:50.864Z,1006.29
2016-04-28T06:17:50.899Z,1006.29
2016-04-28T06:18:50.919Z,1006.32
2016-04-28T06:19:50.971Z,1006.27
2016-04-28T06:20:50.991Z,1006.28
2016-04-28T06:21:51.011Z,1006.31
2016-04-28T06:22:51.045Z,1006.31
2016-04-28T06:23:51.079Z,1006.36
2016-04-28T06:24:51.099Z,1006.34
2016-04-28T06:25:51.134Z,1006.37
2016-04-28T06:26:51.495Z,1006.35
2016-04-28T06:27:51.187Z,1006.36
2016-04-28T06:28:51.220Z,1006.35
2016-04-28T06:29:51.255Z,1006.4
2016-04-28T06:30:51.274Z,1006.4
2016-04-28T06:31:51.307Z,1006.39
2016-04-28T06:32:51.342Z,1006.42
2016-04-28T06:33:51.360Z,1006.36
2016-04-28T06:34:51.394Z,1006.41
2016-04-28T06:35:51.429Z,1006.42
2016-04-28T06:36:51.462Z,1006.44
2016-04-28T06:37:51.479Z,1006.38
2016-04-28T06:38:51.514Z,1006.44
2016-04-28T06:39:51.532Z,1006.43
2016-04-28T06:40:51.567Z,1006.42
2016-04-28T06:41:51.787Z,1006.44
2016-04-28T06:42:51.618Z,1006.43
2016-04-28T06:43:51.653Z,1006.5
2016-04-28T06:44:51.686Z,1006.51
2016-04-28T06:45:51.705Z,1006.49
2016-04-28T06:46:51.754Z,1006.49
2016-04-28T06:47:51.773Z,1006.47
2016-04-28T06:48:51.806Z,1006.5
2016-04-28T06:49:51.825Z,1006.48
2016-04-28T06:50:51.858Z,1006.51
2016-04-28T06:51:51.893Z,1006.49
2016-04-28T06:52:51.911Z,1006.53
2016-04-28T06:53:51.945Z,1006.52
2016-04-28T06:54:51.979Z,1006.53
2016-04-28T06:55:52.013Z,1006.5
2016-04-28T06:56:52.031Z,1006.54
2016-04-28T06:57:52.065Z,1006.53
2016-04-28T06:58:52.083Z,1006.55
2016-04-28T06:59:52.117Z,1006.54
2016-04-28T07:00:52.151Z,1006.53
2016-04-28T07:01:52.170Z,1006.52
2016-04-28T07:02:52.204Z,1006.57
2016-04-28T07:03:52.237Z,1006.61
2016-04-28T07:04:52.272Z,1006.62
2016-04-28T07:05:52.290Z,1006.64
2016-04-28T07:06:52.323Z,1006.61
2016-04-28T07:07:52.357Z,1006.6
2016-04-28T07:08:52.376Z,1006.64
2016-04-28T07:09:52.409Z,1006.59
2016-04-28T07:10:52.444Z,1006.59
2016-04-28T07:11:52.478Z,1006.59
2016-04-28T07:12:52.496Z,1006.58
2016-04-28T07:13:52.531Z,1006.58
2016-04-28T07:14:52.548Z,1006.61
2016-04-28T07:15:52.582Z,1006.62
2016-04-28T07:16:52.616Z,1006.62
2016-04-28T07:17:52.650Z,1006.65
2016-04-28T07:18:52.684Z,1006.61
2016-04-28T07:19:52.702Z,1006.64
2016-04-28T07:20:52.736Z,1006.66
2016-04-28T07:21:52.770Z,1006.63
2016-04-28T07:22:52.790Z,1006.67
2016-04-28T07:23:52.824Z,1006.65
2016-04-28T07:24:52.857Z,1006.7
2016-04-28T07:25:52.892Z,1006.69
2016-04-28T07:26:52.942Z,1006.63
2016-04-28T07:27:52.944Z,1006.67
2016-04-28T07:28:52.977Z,1006.63
2016-04-28T07:29:53.011Z,1006.67
2016-04-28T07:30:53.030Z,1006.66
2016-04-28T07:31:53.080Z,1006.69
2016-04-28T07:32:53.098Z,1006.72
2016-04-28T07:33:53.132Z,1006.72
2016-04-28T07:34:53.166Z,1006.7
2016-04-28T07:35:53.184Z,1006.76
2016-04-28T07:36:53.218Z,1006.78
2016-04-28T07:37:53.252Z,1006.73
2016-04-28T07:38:53.285Z,1006.77
2016-04-28T07:39:53.319Z,1006.79
2016-04-28T07:40:53.354Z,1006.78
2016-04-28T07:41:53.388Z,1006.85
2016-04-28T07:42:53.593Z,1006.82
2016-04-28T07:43:53.658Z,1006.84
2016-04-28T07:44:53.474Z,1006.87
2016-04-28T07:45:53.524Z,1006.87
2016-04-28T07:46:53.542Z,1006.87
2016-04-28T07:47:53.576Z,1006.82
2016-04-28T07:48:53.625Z,1006.86
2016-04-28T07:49:53.643Z,1006.86
2016-04-28T07:50:53.677Z,1006.88
2016-04-28T07:51:53.726Z,1006.85
2016-04-28T07:52:53.761Z,1006.9
2016-04-28T07:53:53.779Z,1006.92
2016-04-28T07:54:53.813Z,1006.88
2016-04-28T07:55:53.848Z,1006.91
2016-04-28T07:56:57.273Z,1006.93
2016-04-28T07:57:53.915Z,1006.92
2016-04-28T07:58:53.965Z,1006.94
2016-04-28T07:59:53.983Z,1007
2016-04-28T08:00:54.017Z,1006.97
2016-04-28T08:01:54.051Z,1006.98
2016-04-28T08:02:54.100Z,1007.01
2016-04-28T08:03:54.119Z,1007
2016-04-28T08:04:54.152Z,1006.98
2016-04-28T08:05:54.202Z,1007.01
2016-04-28T08:06:54.236Z,1007.02
2016-04-28T08:07:54.266Z,1007.02
2016-04-28T08:08:54.284Z,1007.01
2016-04-28T08:09:54.318Z,1007.03
2016-04-28T08:10:54.368Z,1007.03
2016-04-28T08:11:56.479Z,1007.06
2016-04-28T08:12:54.420Z,1007.03
2016-04-28T08:13:54.453Z,1007.09
2016-04-28T08:14:54.488Z,1006.98
2016-04-28T08:15:54.522Z,1006.96
2016-04-28T08:16:54.556Z,1007.01
2016-04-28T08:17:54.590Z,1007.03
2016-04-28T08:18:54.624Z,1007.04
2016-04-28T08:19:54.658Z,1007.05
2016-04-28T08:20:54.691Z,1007.04
2016-04-28T08:21:54.725Z,1007.05
2016-04-28T08:22:54.775Z,1007.07
2016-04-28T08:23:54.809Z,1007.07
2016-04-28T08:24:54.843Z,1007
2016-04-28T08:25:54.877Z,1007.09
2016-04-28T08:26:54.911Z,1007.05
2016-04-28T08:27:54.961Z,1006.98
2016-04-28T08:28:54.995Z,1006.99
2016-04-28T08:29:55.028Z,1007.06
2016-04-28T08:30:55.063Z,1007.04
2016-04-28T08:31:55.112Z,1007.02
2016-04-28T08:32:55.146Z,1007.06
2016-04-28T08:33:55.180Z,1007.05
2016-04-28T08:34:55.213Z,1007.07
2016-04-28T08:35:55.263Z,1007.08
2016-04-28T08:36:55.297Z,1007.08
2016-04-28T08:37:55.331Z,1007.06
2016-04-28T08:38:55.381Z,1007.1
2016-04-28T08:39:55.414Z,1007.08
2016-04-28T08:40:55.449Z,1007.09
2016-04-28T08:41:55.499Z,1007.09
2016-04-28T08:42:55.532Z,1007.13
2016-04-28T08:43:55.566Z,1007.13
2016-04-28T08:44:55.615Z,1007.1
2016-04-28T08:45:55.681Z,1007.09
2016-04-28T08:46:55.684Z,1007.14
2016-04-28T08:47:55.748Z,1007.15
2016-04-28T08:48:55.783Z,1007.09
2016-04-28T08:49:55.817Z,1007.15
2016-04-28T08:50:55.851Z,1007.12
2016-04-28T08:51:55.900Z,1007.05
2016-04-28T08:52:55.934Z,1007.1
2016-04-28T08:53:55.967Z,1007.07
2016-04-28T08:54:56.017Z,1007.09
2016-04-28T08:55:56.052Z,1007.05
2016-04-28T08:56:58.398Z,1007.09
2016-04-28T08:57:56.135Z,1007.1
2016-04-28T08:58:56.169Z,1007.07
2016-04-28T08:59:56.218Z,1007.1
2016-04-28T09:00:57.143Z,1007.11
2016-04-28T09:01:56.302Z,1007.09
2016-04-28T09:02:56.336Z,1007.12
2016-04-28T09:03:56.370Z,1007.13
2016-04-28T09:04:56.404Z,1007.14
2016-04-28T09:05:56.454Z,1007.11
2016-04-28T09:06:56.488Z,1007.13
2016-04-28T09:07:56.521Z,1007.1
2016-04-28T09:08:56.555Z,1007.05
2016-04-28T09:09:56.589Z,1007.1
2016-04-28T09:10:56.638Z,1007.09
2016-04-28T09:11:56.673Z,1007.07
2016-04-28T09:12:56.707Z,1007.13
2016-04-28T09:13:56.741Z,1007.14
2016-04-28T09:14:56.774Z,1007.17
2016-04-28T09:15:56.824Z,1007.16
2016-04-28T09:16:56.858Z,1007.23
2016-04-28T09:17:56.892Z,1007.18
2016-04-28T09:18:56.926Z,1007.21
2016-04-28T09:19:56.959Z,1007.19
2016-04-28T09:20:56.994Z,1007.25
2016-04-28T09:21:57.028Z,1007.29
2016-04-28T09:22:57.061Z,1007.25
2016-04-28T09:23:57.111Z,1007.17
2016-04-28T09:24:57.145Z,1007.25
2016-04-28T09:25:57.179Z,1007.14
2016-04-28T09:26:59.025Z,1007.2
2016-04-28T09:27:57.247Z,1007.26
2016-04-28T09:28:57.280Z,1007.19
2016-04-28T09:29:57.314Z,1007.22
2016-04-28T09:30:57.363Z,1007.17
2016-04-28T09:31:57.398Z,1007.17
2016-04-28T09:32:57.448Z,1007.15
2016-04-28T09:33:57.466Z,1007.18
2016-04-28T09:34:57.515Z,1007.15
2016-04-28T09:35:57.549Z,1007.18
2016-04-28T09:36:57.583Z,1007.25
2016-04-28T09:37:57.618Z,1007.13
2016-04-28T09:38:57.667Z,1007.16
2016-04-28T09:39:57.716Z,1007.22
2016-04-28T09:40:57.734Z,1007.25
2016-04-28T09:41:58.378Z,1007.18
2016-04-28T09:42:57.819Z,1007.18
2016-04-28T09:43:57.852Z,1007.2
2016-04-28T09:44:57.902Z,1007.22
2016-04-28T09:45:57.936Z,1007.18
2016-04-28T09:46:59.767Z,1007.18
2016-04-28T09:47:58.019Z,1007.15
2016-04-28T09:48:58.084Z,1007.18
2016-04-28T09:49:58.103Z,1007.24
2016-04-28T09:50:58.137Z,1007.2
2016-04-28T09:51:58.186Z,1007.21
2016-04-28T09:52:58.220Z,1007.15
2016-04-28T09:53:58.270Z,1007.13
2016-04-28T09:54:58.303Z,1007.22
2016-04-28T09:55:58.338Z,1007.18
2016-04-28T09:56:58.543Z,1007.19
2016-04-28T09:57:58.421Z,1007.2
2016-04-28T09:58:58.471Z,1007.22
2016-04-28T09:59:58.505Z,1007.16
2016-04-28T10:00:58.555Z,1007.2
2016-04-28T10:01:58.588Z,1007.21
2016-04-28T10:02:58.638Z,1007.18
2016-04-28T10:03:58.672Z,1007.21
2016-04-28T10:04:58.721Z,1007.19
2016-04-28T10:05:58.755Z,1007.2
2016-04-28T10:06:58.805Z,1007.24
2016-04-28T10:07:58.839Z,1007.19
2016-04-28T10:08:58.889Z,1007.16
2016-04-28T10:09:58.922Z,1007.19
2016-04-28T10:10:58.972Z,1007.17
2016-04-28T10:11:59.022Z,1007.11
2016-04-28T10:12:59.054Z,1007.12
2016-04-28T10:13:59.104Z,1007.1
2016-04-28T10:14:59.155Z,1007.11
2016-04-28T10:15:59.188Z,1007.13
2016-04-28T10:16:59.222Z,1007.14
2016-04-28T10:17:59.272Z,1007.14
2016-04-28T10:18:59.321Z,1007.08
2016-04-28T10:19:59.355Z,1007.06
2016-04-28T10:20:59.406Z,1006.97
2016-04-28T10:21:59.454Z,1007.03
2016-04-28T10:22:59.489Z,1007.07
2016-04-28T10:23:59.538Z,1007.07
2016-04-28T10:24:59.573Z,1007.08
2016-04-28T10:25:59.622Z,1007.11
2016-04-28T10:26:59.672Z,1007.11
2016-04-28T10:28:01.658Z,1007.11
2016-04-28T10:28:59.739Z,1007.17
2016-04-28T10:29:59.789Z,1007.14
2016-04-28T10:30:59.822Z,1007.21
2016-04-28T10:31:59.856Z,1007.24
2016-04-28T10:32:59.906Z,1007.28
2016-04-28T10:33:59.940Z,1007.29
2016-04-28T10:34:59.974Z,1007.34
2016-04-28T10:36:00.008Z,1007.36
2016-04-28T10:37:00.058Z,1007.29
2016-04-28T10:38:00.092Z,1007.31
2016-04-28T10:39:00.140Z,1007.34
2016-04-28T10:40:00.159Z,1007.37
2016-04-28T10:41:00.193Z,1007.35
2016-04-28T10:42:00.227Z,1007.37
2016-04-28T10:43:00.276Z,1007.38
2016-04-28T10:44:00.310Z,1007.41
2016-04-28T10:45:00.345Z,1007.39
2016-04-28T10:46:00.379Z,1007.45
2016-04-28T10:47:00.413Z,1007.44
2016-04-28T10:48:00.446Z,1007.43
2016-04-28T10:49:00.481Z,1007.41
2016-04-28T10:50:00.515Z,1007.38
2016-04-28T10:51:00.548Z,1007.39
2016-04-28T10:52:00.582Z,1007.39
2016-04-28T10:53:00.616Z,1007.34
2016-04-28T10:54:00.650Z,1007.35
2016-04-28T10:55:00.684Z,1007.39
2016-04-28T10:56:00.718Z,1007.34
2016-04-28T10:57:00.752Z,1007.33
2016-04-28T10:58:00.786Z,1007.35
2016-04-28T10:59:00.820Z,1007.38
2016-04-28T11:00:00.853Z,1007.4
2016-04-28T11:01:00.888Z,1007.4
2016-04-28T11:02:00.922Z,1007.44
2016-04-28T11:03:00.956Z,1007.47
2016-04-28T11:04:00.989Z,1007.52
2016-04-28T11:05:01.024Z,1007.5
2016-04-28T11:06:01.057Z,1007.55
2016-04-28T11:07:01.091Z,1007.54
2016-04-28T11:08:01.125Z,1007.49
2016-04-28T11:09:01.159Z,1007.5
2016-04-28T11:10:01.193Z,1007.47
2016-04-28T11:11:01.227Z,1007.46
2016-04-28T11:12:01.277Z,1007.42
2016-04-28T11:13:01.920Z,1007.45
2016-04-28T11:14:01.344Z,1007.39
2016-04-28T11:15:01.379Z,1007.35
2016-04-28T11:16:01.428Z,1007.39
2016-04-28T11:17:01.462Z,1007.38
2016-04-28T11:18:01.496Z,1007.38
2016-04-28T11:19:01.529Z,1007.41
2016-04-28T11:20:01.564Z,1007.38
2016-04-28T11:21:01.607Z,1007.32
2016-04-28T11:22:01.642Z,1007.39
2016-04-28T11:23:01.692Z,1007.4
2016-04-28T11:24:01.725Z,1007.37
2016-04-28T11:25:01.759Z,1007.39
2016-04-28T11:26:01.792Z,1007.36
2016-04-28T11:27:02.155Z,1007.44
2016-04-28T11:28:01.877Z,1007.44
2016-04-28T11:29:01.910Z,1007.43
2016-04-28T11:30:01.944Z,1007.41
2016-04-28T11:31:01.977Z,1007.44
2016-04-28T11:32:02.028Z,1007.44
2016-04-28T11:33:02.062Z,1007.5
2016-04-28T11:34:02.096Z,1007.48
2016-04-28T11:35:02.129Z,1007.47
2016-04-28T11:36:02.163Z,1007.49
2016-04-28T11:37:02.196Z,1007.51
2016-04-28T11:38:02.231Z,1007.53
2016-04-28T11:39:02.281Z,1007.55
2016-04-28T11:40:02.315Z,1007.54
2016-04-28T11:41:02.349Z,1007.61
2016-04-28T11:42:02.382Z,1007.53
2016-04-28T11:43:02.417Z,1007.6
2016-04-28T11:44:02.451Z,1007.58
2016-04-28T11:45:02.485Z,1007.59
2016-04-28T11:46:02.518Z,1007.56
2016-04-28T11:47:02.553Z,1007.61
2016-04-28T11:48:02.587Z,1007.73
2016-04-28T11:49:02.620Z,1007.61
2016-04-28T11:50:02.654Z,1007.58
2016-04-28T11:51:02.689Z,1007.55
2016-04-28T11:52:02.723Z,1007.58
2016-04-28T11:53:02.756Z,1007.51
2016-04-28T11:54:02.789Z,1007.56
2016-04-28T11:55:02.824Z,1007.58
2016-04-28T11:56:02.858Z,1007.59
2016-04-28T11:57:02.892Z,1007.54
2016-04-28T11:58:02.942Z,1007.48
2016-04-28T11:59:02.960Z,1007.51
2016-04-28T12:00:02.994Z,1007.51
2016-04-28T12:01:03.044Z,1007.52
2016-04-28T12:02:03.077Z,1007.53
2016-04-28T12:03:03.111Z,1007.52
2016-04-28T12:04:03.144Z,1007.49
2016-04-28T12:05:03.179Z,1007.52
2016-04-28T12:06:03.213Z,1007.53
2016-04-28T12:07:03.247Z,1007.51
2016-04-28T12:08:03.280Z,1007.5
2016-04-28T12:09:03.315Z,1007.53